Nearby METAR Reports

 

KMHT - Manchester, New Hampshire, USA
Distance from station: W 16mi, 26km
Updated: Tue, 18-Dec-2018 5:53pm EST
Few Clouds
Few Clouds
 Wind from NNW
Wind: NNW 8 mph , 13 km/h, Gust: 20 mph , 31 km/h
Temperature: 25°F , -4°C
Wind Chill: 16°F , -9°C
Dew Point: 10°F , -12°C
Humidity: 54%
Barometer: 29.98 inHg , 1015.2 hPa
Clouds: Few Clouds
Visibility: 10 miles , 16 km
Cloud details: Few Clouds 4500 ft
2018/12/18 22:53 KMHT 182253Z 34007G17KT 10SM FEW045 M04/M12 A2998 RMK AO2 SLP171 T10391122
KPSM - Portsmouth/Pease, New Hampshire, USA
Distance from station: ENE 17mi, 27km
Updated: Tue, 18-Dec-2018 5:56pm EST
Clear
Clear
 Wind from WNW
Wind: WNW 14 mph , 22 km/h, Gust: 21 mph , 33 km/h
Temperature: 25°F , -4°C
Wind Chill: 13°F , -11°C
Dew Point: 9°F , -13°C
Humidity: 50%
Barometer: 29.94 inHg , 1013.9 hPa
Clouds: Clear
Visibility: 10 miles , 16 km
2018/12/18 22:56 KPSM 182256Z 29012G18KT 10SM CLR M04/M13 A2994 RMK AO2A SLP142 T10431127
 
KASH - Nashua/Boire Fld, New Hampshire, USA
Distance from station: WSW 24mi, 38km
Updated: Tue, 18-Dec-2018 5:56pm EST
Clear
Clear
 Wind from NW
Wind: NW 17 mph , 28 km/h, Gust: 25 mph , 41 km/h
Temperature: 27°F , -3°C
Wind Chill: 14°F , -10°C
Dew Point: 12°F , -11°C
Humidity: 54%
Barometer: 29.99 inHg , 1015.6 hPa
Clouds: Clear
Visibility: 10 miles , 16 km
2018/12/18 22:56 KASH 182256Z 32015G22KT 10SM CLR M03/M11 A2999 RMK AO2 SLP168 T10331111 $
KDAW - Rochester, New Hampshire, USA
Distance from station: NNE 24mi, 39km
Updated: Tue, 18-Dec-2018 5:51pm EST
Clear
Clear
 Wind from WNW
Wind: WNW 15 mph , 24 km/h, Gust: 23 mph , 37 km/h
Temperature: 23°F , -5°C
Wind Chill: 10°F , -12°C
Dew Point: 10°F , -12°C
Humidity: 58%
Barometer: 29.92 inHg , 1013.2 hPa
Clouds: Clear
Visibility: 10 miles , 16 km
2018/12/18 22:51 KDAW 182251Z AUTO 30013G20KT 10SM CLR M05/M12 A2992 RMK AO2 SLP135 T10501122